Time;durP1;ratioP1;P1;durP2;ratioP2;P2;SDS_P1;SDS_P2;PMS_P1;PMS_P2;Temp;Humidity;BMP_temperature;BMP_pressure;BME280_temperature;BME280_humidity;BME280_pressure;Samples;Min_cycle;Max_cycle;Signal;HPM_P1;HPM_P2
2023/07/30 00:01:15;;;;;;;4.57;2.40;;;;;;;21.43;100.00;100311.78;5054029;28;20111;-71
2023/07/30 00:03:40;;;;;;;4.10;2.20;;;;;;;21.55;100.00;100371.28;5068479;28;20509;-72
2023/07/30 00:06:06;;;;;;;3.47;2.45;;;;;;;21.72;100.00;100312.38;5053230;28;20086;-71
2023/07/30 00:08:31;;;;;;;5.10;2.53;;;;;;;21.66;100.00;100349.88;5071822;28;20526;-71
2023/07/30 00:10:58;;;;;;;7.35;2.30;;;;;;;21.82;100.00;100371.22;5071450;28;20028;-71
2023/07/30 00:13:24;;;;;;;3.28;2.55;;;;;;;21.28;100.00;100339.47;5071816;28;20029;-70
2023/07/30 00:15:49;;;;;;;3.33;2.30;;;;;;;21.30;100.00;100318.69;5071584;28;20115;-71
2023/07/30 00:18:16;;;;;;;4.65;2.50;;;;;;;21.78;100.00;100353.38;5036036;28;20129;-71
2023/07/30 00:20:41;;;;;;;5.95;2.47;;;;;;;21.79;100.00;100361.03;5070412;28;20029;-71
2023/07/30 00:23:07;;;;;;;4.18;2.30;;;;;;;21.18;100.00;100309.16;5071213;28;20040;-71
2023/07/30 00:25:32;;;;;;;3.00;2.60;;;;;;;21.44;100.00;100344.47;5065135;28;20119;-71
2023/07/30 00:27:58;;;;;;;2.88;2.50;;;;;;;21.68;100.00;100334.22;5051409;28;20063;-71
2023/07/30 00:30:23;;;;;;;4.70;2.60;;;;;;;21.36;100.00;100357.09;5051481;28;20064;-71
2023/07/30 00:32:49;;;;;;;4.38;2.38;;;;;;;21.27;100.00;100287.84;5050947;28;20423;-70
2023/07/30 00:35:14;;;;;;;4.05;2.60;;;;;;;21.56;100.00;100354.00;5051005;28;20048;-71
2023/07/30 00:37:40;;;;;;;5.13;2.90;;;;;;;21.59;100.00;100340.84;5033071;28;20095;-71
2023/07/30 00:40:06;;;;;;;4.65;2.63;;;;;;;21.59;100.00;100352.03;5032874;28;20502;-71
2023/07/30 00:42:31;;;;;;;4.03;2.60;;;;;;;21.41;100.00;100321.41;5050669;28;20037;-71
2023/07/30 00:44:57;;;;;;;4.00;2.60;;;;;;;21.38;100.00;100322.44;5051096;28;20029;-71
2023/07/30 00:47:22;;;;;;;4.90;2.42;;;;;;;21.67;100.00;100346.31;5032978;28;20120;-71
2023/07/30 00:49:49;;;;;;;3.63;2.60;;;;;;;21.38;100.00;100303.47;5050768;28;20063;-71
2023/07/30 00:52:20;;;;;;;5.13;2.40;;;;;;;21.35;100.00;100332.16;5051213;28;20032;-70
2023/07/30 00:54:46;;;;;;;6.60;2.63;;;;;;;21.14;100.00;100336.97;5050803;28;20703;-71
2023/07/30 00:57:12;;;;;;;5.65;2.55;;;;;;;21.22;100.00;100347.66;5032597;28;20033;-71
2023/07/30 00:59:37;;;;;;;4.63;2.38;;;;;;;21.08;100.00;100331.38;5033080;28;20384;-71
2023/07/30 01:02:04;;;;;;;3.72;2.30;;;;;;;21.05;100.00;100309.16;5056960;28;20549;-72
2023/07/30 01:04:30;;;;;;;3.90;2.60;;;;;;;20.97;100.00;100289.84;5051986;28;20064;-75
2023/07/30 01:06:55;;;;;;;7.22;2.63;;;;;;;20.87;100.00;100270.69;5050774;28;20100;-71
2023/07/30 01:09:21;;;;;;;3.78;2.50;;;;;;;20.67;100.00;100230.66;5050659;28;20052;-70
2023/07/30 01:11:48;;;;;;;4.30;2.63;;;;;;;20.96;100.00;100283.00;5050559;28;20024;-70
2023/07/30 01:14:14;;;;;;;4.95;2.40;;;;;;;20.21;100.00;100193.22;5059059;28;20028;-71
2023/07/30 01:16:40;;;;;;;4.55;2.60;;;;;;;21.12;100.00;100279.34;5052706;28;20029;-74
2023/07/30 01:19:07;;;;;;;5.00;2.70;;;;;;;21.07;100.00;100267.66;5070564;28;20572;-70
2023/07/30 01:21:34;;;;;;;5.40;2.50;;;;;;;20.50;100.00;100218.81;5060403;28;20116;-72
2023/07/30 01:24:00;;;;;;;4.40;2.20;;;;;;;21.24;100.00;100288.03;5050502;28;20025;-73
2023/07/30 01:26:30;;;;;;;4.47;2.92;;;;;;;20.70;100.00;100233.03;5050939;28;20040;-73
2023/07/30 01:29:00;;;;;;;4.95;2.28;;;;;;;20.87;100.00;100278.44;5050671;28;20120;-73
2023/07/30 01:31:27;;;;;;;4.50;2.45;;;;;;;20.75;100.00;100249.06;5050932;28;20067;-73
2023/07/30 01:33:55;;;;;;;3.78;2.53;;;;;;;20.96;100.00;100244.22;5050874;28;20070;-74
2023/07/30 01:36:21;;;;;;;5.10;2.55;;;;;;;20.99;100.00;100237.13;5036482;28;20144;-72
2023/07/30 01:38:49;;;;;;;7.32;2.78;;;;;;;20.23;100.00;100197.34;5054645;28;20033;-74
2023/07/30 01:41:14;;;;;;;4.15;2.70;;;;;;;20.53;100.00;100185.06;5037592;28;20044;-72
2023/07/30 01:43:40;;;;;;;3.33;2.40;;;;;;;20.94;100.00;100251.25;5055234;28;20025;-72
2023/07/30 01:46:06;;;;;;;5.45;2.60;;;;;;;21.40;100.00;100301.63;5054594;28;20107;-73
2023/07/30 01:48:32;;;;;;;5.43;2.63;;;;;;;21.04;100.00;100192.88;5064090;28;20483;-72
2023/07/30 01:50:57;;;;;;;4.90;2.58;;;;;;;21.59;100.00;100269.22;5061442;28;20047;-70
2023/07/30 01:53:23;;;;;;;4.10;2.72;;;;;;;21.17;100.00;100292.00;5058016;28;20032;-71
2023/07/30 01:55:48;;;;;;;4.63;2.80;;;;;;;20.36;100.00;100270.53;5054013;28;20036;-72
2023/07/30 01:58:14;;;;;;;5.22;2.45;;;;;;;20.38;100.00;100222.19;5053436;28;20423;-72
2023/07/30 02:00:40;;;;;;;4.07;2.60;;;;;;;20.42;100.00;100226.22;5053398;28;20178;-72
2023/07/30 02:03:06;;;;;;;4.13;2.88;;;;;;;20.80;100.00;100278.03;5035073;28;20052;-72
2023/07/30 02:05:31;;;;;;;5.00;2.58;;;;;;;20.76;100.00;100268.00;5054087;28;20488;-72
2023/07/30 02:07:58;;;;;;;5.10;2.80;;;;;;;20.11;100.00;100211.00;5054523;28;20029;-72
2023/07/30 02:10:25;;;;;;;3.15;2.85;;;;;;;20.36;100.00;100205.16;5054558;28;20075;-72
2023/07/30 02:12:50;;;;;;;3.30;2.67;;;;;;;20.09;100.00;100165.56;5053884;28;20052;-72
2023/07/30 02:15:15;;;;;;;4.63;2.72;;;;;;;20.34;100.00;100215.56;5053948;28;20170;-73
2023/07/30 02:17:41;;;;;;;6.05;3.10;;;;;;;20.36;100.00;100264.56;5054115;28;20040;-73
2023/07/30 02:20:07;;;;;;;3.78;2.60;;;;;;;20.64;100.00;100243.75;5057363;28;20056;-73
2023/07/30 02:22:33;;;;;;;5.15;3.00;;;;;;;20.57;100.00;100268.34;5055654;28;20112;-73
2023/07/30 02:24:58;;;;;;;5.45;2.90;;;;;;;20.72;100.00;100265.59;5053769;28;20055;-73
2023/07/30 02:27:24;;;;;;;5.82;3.10;;;;;;;20.21;100.00;100224.19;5054234;28;20028;-73
2023/07/30 02:29:49;;;;;;;3.13;2.72;;;;;;;20.61;100.00;100308.56;5054366;28;20056;-72
2023/07/30 02:32:16;;;;;;;6.15;3.20;;;;;;;20.62;100.00;100295.53;5053701;28;20154;-71
2023/07/30 02:34:42;;;;;;;4.55;3.03;;;;;;;19.83;100.00;100231.72;5035623;28;20491;-71
2023/07/30 02:37:07;;;;;;;3.13;2.83;;;;;;;20.11;100.00;100337.53;5053549;28;20033;-73
2023/07/30 02:39:32;;;;;;;4.88;3.10;;;;;;;20.16;100.00;100289.03;5053871;28;20031;-73
2023/07/30 02:41:58;;;;;;;3.55;2.83;;;;;;;20.18;100.00;100335.41;5035807;28;20056;-72
2023/07/30 02:44:23;;;;;;;4.65;3.25;;;;;;;19.98;100.00;100340.97;5053471;28;20033;-73
2023/07/30 02:46:49;;;;;;;4.57;3.15;;;;;;;19.75;100.00;100296.72;5053432;28;20024;-73
2023/07/30 02:49:14;;;;;;;5.40;3.15;;;;;;;19.99;100.00;100325.38;5035272;28;20045;-72
2023/07/30 02:51:39;;;;;;;4.10;3.25;;;;;;;19.81;100.00;100296.34;5035835;28;20071;-73
2023/07/30 02:54:07;;;;;;;6.32;3.20;;;;;;;20.11;100.00;100363.34;5035185;28;20029;-73
2023/07/30 02:56:32;;;;;;;4.85;3.05;;;;;;;20.23;100.00;100365.22;5053313;28;20189;-73
2023/07/30 02:58:59;;;;;;;5.72;3.20;;;;;;;20.10;100.00;100369.47;5053043;28;20134;-72
2023/07/30 03:01:24;;;;;;;3.63;3.10;;;;;;;19.68;100.00;100279.13;5052543;28;20033;-72
2023/07/30 03:03:50;;;;;;;6.53;3.58;;;;;;;20.07;100.00;100336.06;5034865;28;20506;-73
2023/07/30 03:06:16;;;;;;;5.68;3.45;;;;;;;20.16;100.00;100370.81;5053679;28;20116;-73
2023/07/30 03:08:45;;;;;;;5.05;3.75;;;;;;;20.13;100.00;100376.16;5053362;28;20403;-72
2023/07/30 03:11:10;;;;;;;5.65;3.47;;;;;;;20.07;100.00;100338.66;5053236;28;20025;-73
2023/07/30 03:13:36;;;;;;;7.35;3.55;;;;;;;19.88;100.00;100335.53;5035352;28;20457;-73
2023/07/30 03:16:01;;;;;;;5.50;3.45;;;;;;;20.17;100.00;100383.63;5035443;28;20476;-71
2023/07/30 03:18:26;;;;;;;7.05;3.50;;;;;;;20.13;100.00;100338.28;5034865;28;20025;-70
2023/07/30 03:21:01;;;;;;;4.75;3.38;;;;;;;20.44;100.00;100381.97;5034599;28;20043;-73
2023/07/30 03:23:27;;;;;;;5.65;3.63;;;;;;;19.89;100.00;100342.34;5046792;28;20036;-73
2023/07/30 03:25:53;;;;;;;5.20;3.55;;;;;;;19.28;100.00;100247.13;5035033;28;20049;-72
2023/07/30 03:28:18;;;;;;;6.07;3.70;;;;;;;20.23;100.00;100395.38;5052727;28;20044;-72
2023/07/30 03:30:43;;;;;;;7.03;3.95;;;;;;;20.07;100.00;100322.31;5052974;28;20025;-73
2023/07/30 03:33:09;;;;;;;7.85;3.95;;;;;;;20.03;100.00;100324.25;5034828;28;20051;-73
2023/07/30 03:35:34;;;;;;;4.95;4.03;;;;;;;20.25;100.00;100373.69;5052810;28;20063;-72
2023/07/30 03:37:59;;;;;;;6.05;3.97;;;;;;;20.41;100.00;100378.75;5052987;28;20477;-73
2023/07/30 03:40:25;;;;;;;7.90;4.05;;;;;;;20.51;100.00;100378.09;5052451;28;20124;-73
2023/07/30 03:42:51;;;;;;;8.63;4.60;;;;;;;20.67;100.00;100381.38;5052024;28;20025;-72
2023/07/30 03:45:16;;;;;;;7.15;4.63;;;;;;;20.46;100.00;100372.38;5052245;28;20025;-72
2023/07/30 03:47:41;;;;;;;6.93;4.30;;;;;;;20.48;100.00;100373.09;5052309;28;20048;-72
2023/07/30 03:50:07;;;;;;;7.78;4.00;;;;;;;20.22;100.00;100332.59;5034489;28;20083;-72
2023/07/30 03:52:33;;;;;;;7.75;4.28;;;;;;;20.40;100.00;100335.78;5052394;28;20486;-70
2023/07/30 03:54:58;;;;;;;6.50;3.83;;;;;;;20.48;100.00;100318.84;5052749;28;20469;-73
2023/07/30 03:57:23;;;;;;;6.07;3.47;;;;;;;20.27;100.00;100322.78;5051916;28;20480;-73
2023/07/30 03:59:49;;;;;;;5.65;3.30;;;;;;;20.69;100.00;100389.03;5052274;28;20044;-73
2023/07/30 04:02:15;;;;;;;5.22;3.63;;;;;;;20.48;100.00;100328.38;5051940;28;20025;-73
2023/07/30 04:04:44;;;;;;;5.80;3.67;;;;;;;20.78;100.00;100382.47;5052387;28;20115;-73
2023/07/30 04:07:10;;;;;;;4.78;3.08;;;;;;;20.32;100.00;100297.47;5052437;28;20029;-73
2023/07/30 04:09:35;;;;;;;7.60;3.55;;;;;;;20.94;100.00;100383.94;5052082;28;20040;-73
2023/07/30 04:12:00;;;;;;;5.78;3.42;;;;;;;20.63;100.00;100327.38;5052106;28;20034;-74
2023/07/30 04:14:26;;;;;;;7.15;3.25;;;;;;;21.04;100.00;100382.47;5052054;28;20033;-74
2023/07/30 04:16:51;;;;;;;5.60;3.72;;;;;;;21.18;100.00;100395.34;5033950;28;20059;-73
2023/07/30 04:19:17;;;;;;;6.82;3.10;;;;;;;21.25;100.00;100388.00;5052107;28;20025;-73
2023/07/30 04:21:43;;;;;;;5.03;3.28;;;;;;;20.81;100.00;100353.81;5052029;28;20090;-73
2023/07/30 04:24:08;;;;;;;5.90;3.10;;;;;;;21.00;100.00;100339.59;5034221;28;20025;-73
2023/07/30 04:26:34;;;;;;;5.70;3.70;;;;;;;20.92;100.00;100286.75;5052276;28;20032;-73
2023/07/30 04:28:59;;;;;;;4.53;3.28;;;;;;;21.09;100.00;100312.34;5051347;28;20095;-72
2023/07/30 04:31:24;;;;;;;5.35;3.30;;;;;;;21.53;100.00;100361.97;5034056;28;20187;-73
2023/07/30 04:33:50;;;;;;;6.10;3.60;;;;;;;21.41;100.00;100366.19;5051821;28;20079;-74
2023/07/30 04:36:15;;;;;;;9.63;4.03;;;;;;;21.48;100.00;100313.13;5051768;28;20464;-73
2023/07/30 04:38:41;;;;;;;6.15;3.90;;;;;;;21.18;100.00;100245.31;5033395;28;20039;-72
2023/07/30 04:41:06;;;;;;;6.32;3.65;;;;;;;21.76;100.00;100386.31;5051369;28;20041;-71
2023/07/30 04:43:32;;;;;;;8.45;4.97;;;;;;;21.31;100.00;100322.94;5051523;28;20035;-73
2023/07/30 04:45:57;;;;;;;7.05;4.50;;;;;;;22.11;100.00;100383.00;5063296;28;20028;-72
2023/07/30 04:48:23;;;;;;;8.35;3.50;;;;;;;22.01;100.00;100381.97;5071106;28;20028;-74
2023/07/30 04:50:48;;;;;;;6.53;3.45;;;;;;;22.03;100.00;100280.84;5069509;28;20053;-72
2023/07/30 04:53:14;;;;;;;5.43;2.92;;;;;;;22.48;100.00;100338.97;5071224;28;20032;-73
2023/07/30 04:55:39;;;;;;;4.85;3.17;;;;;;;22.74;100.00;100384.66;5052271;28;20028;-73
2023/07/30 04:58:04;;;;;;;6.00;2.97;;;;;;;22.63;100.00;100335.31;5053170;28;20515;-73
2023/07/30 05:00:30;;;;;;;4.25;2.63;;;;;;;22.48;100.00;100321.66;5070811;28;20030;-72
2023/07/30 05:02:55;;;;;;;3.63;2.42;;;;;;;22.74;100.00;100351.75;5071121;28;20461;-73
2023/07/30 05:05:21;;;;;;;9.60;4.53;;;;;;;23.13;100.00;100381.75;5071245;28;20032;-73
2023/07/30 05:07:46;;;;;;;6.90;4.45;;;;;;;23.46;100.00;100379.28;5053317;28;20032;-73
2023/07/30 05:10:11;;;;;;;4.30;3.42;;;;;;;23.40;100.00;100332.19;5070266;28;20120;-74
2023/07/30 05:12:37;;;;;;;6.15;2.78;;;;;;;23.25;100.00;100345.31;5071198;28;20505;-73
2023/07/30 05:15:03;;;;;;;5.10;2.80;;;;;;;23.37;100.00;100360.97;5070901;28;20479;-72
2023/07/30 05:17:29;;;;;;;4.97;2.45;;;;;;;23.72;100.00;100385.94;5053107;28;20039;-73
2023/07/30 05:19:54;;;;;;;5.90;2.60;;;;;;;23.95;100.00;100390.22;5070929;28;20047;-73
2023/07/30 05:22:20;;;;;;;4.30;2.75;;;;;;;24.15;100.00;100387.88;5070946;28;20395;-73
2023/07/30 05:24:45;;;;;;;4.00;2.63;;;;;;;24.14;100.00;100361.06;5070777;28;20075;-73
2023/07/30 05:27:10;;;;;;;5.13;2.40;;;;;;;23.96;100.00;100383.25;5070875;28;20468;-72
2023/07/30 05:29:36;;;;;;;4.35;2.60;;;;;;;24.48;100.00;100369.66;5070754;28;20028;-73
2023/07/30 05:32:01;;;;;;;6.82;2.50;;;;;;;24.56;100.00;100326.47;5070644;28;20028;-74
2023/07/30 05:34:27;;;;;;;5.38;2.50;;;;;;;24.85;100.00;100373.59;5082692;28;20039;-74
2023/07/30 05:36:52;;;;;;;4.85;2.53;;;;;;;24.46;100.00;100361.97;5058739;28;20078;-73
2023/07/30 05:39:17;;;;;;;4.30;2.30;;;;;;;24.62;100.00;100361.59;5071042;28;20119;-73
2023/07/30 05:41:43;;;;;;;3.92;2.50;;;;;;;25.32;100.00;100413.97;5070727;28;20025;-73
2023/07/30 05:44:08;;;;;;;4.75;2.70;;;;;;;25.45;100.00;100410.25;5070517;28;20063;-73
2023/07/30 05:46:34;;;;;;;3.38;2.40;;;;;;;25.25;100.00;100420.63;5070441;28;20522;-73
2023/07/30 05:48:59;;;;;;;4.20;2.63;;;;;;;25.45;100.00;100354.75;5070377;28;20119;-73
2023/07/30 05:51:25;;;;;;;3.58;2.38;;;;;;;25.12;100.00;100365.31;5052868;28;20120;-73
2023/07/30 05:53:50;;;;;;;4.35;2.22;;;;;;;25.57;100.00;100351.13;5070404;28;20108;-73
2023/07/30 05:56:18;;;;;;;3.60;2.50;;;;;;;26.27;100.00;100435.44;5070461;28;20032;-73
2023/07/30 05:58:43;;;;;;;6.03;2.70;;;;;;;26.17;100.00;100439.78;5070597;28;20106;-73
2023/07/30 06:01:09;;;;;;;6.30;2.60;;;;;;;26.08;100.00;100385.81;5052201;28;20495;-73
2023/07/30 06:03:34;;;;;;;4.72;2.50;;;;;;;26.34;100.00;100441.78;5070566;28;20510;-72
2023/07/30 06:06:01;;;;;;;5.07;2.60;;;;;;;26.63;100.00;100432.25;5052777;28;20036;-74
2023/07/30 06:08:26;;;;;;;5.80;2.90;;;;;;;26.29;100.00;100428.28;5070850;28;20029;-73
2023/07/30 06:10:52;;;;;;;4.07;2.63;;;;;;;26.68;100.00;100373.63;5070744;28;20028;-73
2023/07/30 06:13:17;;;;;;;5.25;2.60;;;;;;;26.21;100.00;100380.34;5070532;28;20157;-73
2023/07/30 06:15:43;;;;;;;3.33;2.40;;;;;;;25.94;100.00;100388.75;5070237;28;20029;-73
2023/07/30 06:18:08;;;;;;;4.85;2.50;;;;;;;26.68;100.00;100377.06;5070756;28;20020;-73
2023/07/30 06:20:33;;;;;;;5.28;2.63;;;;;;;26.75;100.00;100391.22;5071800;28;20055;-74
2023/07/30 06:22:59;;;;;;;4.47;2.70;;;;;;;26.87;100.00;100403.19;5056510;28;20036;-74
2023/07/30 06:25:24;;;;;;;4.50;2.40;;;;;;;27.62;100.00;100446.91;5074022;28;20083;-74
2023/07/30 06:27:51;;;;;;;6.45;2.60;;;;;;;27.70;100.00;100465.31;5074673;28;20067;-75
2023/07/30 06:30:16;;;;;;;7.30;2.70;;;;;;;26.93;100.00;100407.03;5074383;28;20028;-74
2023/07/30 06:32:41;;;;;;;5.72;2.50;;;;;;;26.78;100.00;100458.81;5074460;28;20059;-75
2023/07/30 06:35:07;;;;;;;3.45;2.75;;;;;;;27.72;100.00;100453.78;5056128;28;20040;-73
2023/07/30 06:37:33;;;;;;;3.17;2.88;;;;;;;28.13;100.00;100456.03;5073375;28;20029;-73
2023/07/30 06:39:59;;;;;;;5.13;2.90;;;;;;;28.10;100.00;100458.13;5073899;28;20047;-74
2023/07/30 06:42:24;;;;;;;3.72;2.63;;;;;;;28.08;100.00;100420.81;5073787;28;20028;-74
2023/07/30 06:44:50;;;;;;;5.13;2.70;;;;;;;28.29;100.00;100461.47;5055463;28;20498;-73
2023/07/30 06:47:15;;;;;;;3.78;2.97;;;;;;;27.36;100.00;100459.72;5055882;28;20033;-73
2023/07/30 06:49:41;;;;;;;4.75;2.83;;;;;;;26.96;100.00;100404.97;5073592;28;20045;-73
2023/07/30 06:52:06;;;;;;;7.25;2.88;;;;;;;26.89;100.00;100406.50;5073817;28;20457;-73
2023/07/30 06:54:32;;;;;;;4.53;2.72;;;;;;;27.87;100.00;100399.25;5073415;28;20047;-73
2023/07/30 06:56:57;;;;;;;3.92;2.80;;;;;;;28.68;100.00;100453.47;5073622;28;20025;-73
2023/07/30 06:59:23;;;;;;;5.28;2.70;;;;;;;28.67;100.00;100450.03;5073396;28;20029;-73
2023/07/30 07:01:48;;;;;;;3.38;2.90;;;;;;;28.29;100.00;100411.75;5055412;28;20044;-74
2023/07/30 07:04:13;;;;;;;3.70;2.70;;;;;;;28.78;100.00;100397.44;5055651;28;20032;-74
2023/07/30 07:06:39;;;;;;;5.72;2.67;;;;;;;29.45;100.00;100435.41;5073494;28;20517;-73
2023/07/30 07:09:04;;;;;;;3.95;3.00;;;;;;;29.22;100.00;100400.19;5073366;28;20414;-73
2023/07/30 07:11:30;;;;;;;4.70;3.10;;;;;;;29.65;100.00;100413.25;5072771;28;20039;-73
2023/07/30 07:13:55;;;;;;;3.67;2.70;;;;;;;29.62;100.00;100389.97;5055255;28;20024;-73
2023/07/30 07:16:21;;;;;;;5.65;2.78;;;;;;;29.66;100.00;100418.34;5072558;28;20039;-72
2023/07/30 07:18:48;;;;;;;7.05;2.85;;;;;;;29.98;100.00;100432.66;5073040;28;20029;-73
2023/07/30 07:21:14;;;;;;;4.45;3.00;;;;;;;29.66;100.00;100425.38;5073036;28;20024;-73
2023/07/30 07:23:39;;;;;;;5.70;3.22;;;;;;;29.45;100.00;100388.22;5072854;28;20028;-73
2023/07/30 07:26:05;;;;;;;4.35;2.75;;;;;;;29.90;100.00;100422.94;5072995;28;20031;-73
2023/07/30 07:28:30;;;;;;;4.32;2.70;;;;;;;30.00;100.00;100410.53;5072232;28;20036;-74
2023/07/30 07:30:55;;;;;;;3.92;2.78;;;;;;;30.26;100.00;100371.94;5072063;28;20036;-73
2023/07/30 07:33:21;;;;;;;5.47;2.78;;;;;;;29.18;100.00;100346.44;5071816;28;20106;-73
2023/07/30 07:35:47;;;;;;;5.28;3.10;;;;;;;30.60;100.00;100419.97;5072987;28;20469;-74
2023/07/30 07:38:12;;;;;;;3.85;2.72;;;;;;;29.68;100.00;100379.69;5072525;28;20116;-74
2023/07/30 07:40:42;;;;;;;7.55;3.03;;;;;;;30.51;100.00;100415.69;5054560;28;20033;-73
2023/07/30 07:43:08;;;;;;;8.20;4.35;;;;;;;30.25;100.00;100386.03;5063299;28;20663;-73
2023/07/30 07:45:34;;;;;;;3.17;2.60;;;;;;;30.93;100.00;100417.44;5052462;28;20084;-73
2023/07/30 07:47:59;;;;;;;5.25;3.90;;;;;;;30.27;100.00;100417.38;5052435;28;20064;-73
2023/07/30 07:50:25;;;;;;;7.78;4.88;;;;;;;30.16;100.00;100373.88;5034167;28;20045;-73
2023/07/30 07:52:50;;;;;;;11.68;6.90;;;;;;;30.71;100.00;100377.66;5052412;28;20110;-72
2023/07/30 07:55:17;;;;;;;7.57;5.65;;;;;;;30.88;100.00;100368.03;5052333;28;20025;-73
2023/07/30 07:57:42;;;;;;;6.78;4.80;;;;;;;30.75;100.00;100386.88;5051568;28;20411;-73
2023/07/30 08:00:08;;;;;;;14.10;10.18;;;;;;;30.86;100.00;100346.38;5051297;28;20049;-73
2023/07/30 08:02:34;;;;;;;3.90;2.70;;;;;;;31.41;100.00;100376.25;5051772;28;20082;-74
2023/07/30 08:05:00;;;;;;;3.90;2.60;;;;;;;30.60;100.00;100379.78;5034433;28;20040;-73
2023/07/30 08:07:25;;;;;;;3.83;2.67;;;;;;;31.03;100.00;100331.41;5051642;28;20033;-73
2023/07/30 08:09:51;;;;;;;4.05;2.42;;;;;;;31.39;100.00;100366.88;5051952;28;20025;-73
2023/07/30 08:12:17;;;;;;;11.48;6.13;;;;;;;32.19;100.00;100385.06;5052192;28;20025;-73
2023/07/30 08:14:42;;;;;;;4.90;3.00;;;;;;;31.93;100.00;100389.78;5051876;28;20028;-74
2023/07/30 08:17:08;;;;;;;5.55;2.58;;;;;;;31.13;100.00;100335.50;5051688;28;20032;-73
2023/07/30 08:19:33;;;;;;;4.53;2.42;;;;;;;31.78;100.00;100359.88;5033301;28;20119;-73
2023/07/30 08:21:58;;;;;;;4.65;2.42;;;;;;;32.05;100.00;100335.78;5033966;28;20025;-73
2023/07/30 08:24:24;;;;;;;5.68;2.60;;;;;;;32.19;100.00;100371.91;5051424;28;20419;-74
2023/07/30 08:26:49;;;;;;;4.82;2.70;;;;;;;32.64;100.00;100383.56;5034397;28;20443;-74
2023/07/30 08:29:15;;;;;;;4.43;2.47;;;;;;;32.77;100.00;100344.25;5033699;28;20074;-75
2023/07/30 08:31:41;;;;;;;2.70;2.50;;;;;;;32.07;100.00;100306.69;5052094;28;20025;-75
2023/07/30 08:34:07;;;;;;;4.30;2.42;;;;;;;32.85;100.00;100365.28;5052819;28;20029;-75
2023/07/30 08:36:32;;;;;;;4.88;3.05;;;;;;;32.36;100.00;100305.00;5052886;28;20036;-75
2023/07/30 08:38:58;;;;;;;4.30;2.30;;;;;;;33.03;100.00;100334.19;5052292;28;20115;-75
2023/07/30 08:41:24;;;;;;;4.90;2.50;;;;;;;33.26;100.00;100290.94;5052228;28;20025;-75
2023/07/30 08:43:51;;;;;;;5.25;2.40;;;;;;;32.84;100.00;100339.94;5034315;28;20078;-74
2023/07/30 08:46:17;;;;;;;3.78;2.42;;;;;;;32.82;100.00;100265.50;5053483;28;20029;-76
2023/07/30 08:48:42;;;;;;;2.75;1.83;;;;;;;33.22;100.00;100337.13;5054632;28;20036;-76
2023/07/30 08:51:08;;;;;;;3.78;2.40;;;;;;;32.42;100.00;100277.16;5034942;28;20115;-75
2023/07/30 08:53:34;;;;;;;3.85;2.50;;;;;;;33.48;100.00;100322.75;5034619;28;20119;-75
2023/07/30 08:56:01;;;;;;;4.68;2.22;;;;;;;33.70;100.00;100346.38;5052230;28;20025;-75
2023/07/30 08:58:28;;;;;;;3.53;2.45;;;;;;;33.28;100.00;100293.38;5051057;28;20040;-75
2023/07/30 09:00:55;;;;;;;7.88;2.30;;;;;;;33.85;100.00;100312.88;5034558;28;20051;-75
2023/07/30 09:03:25;;;;;;;5.57;2.45;;;;;;;33.48;100.00;100309.56;5051464;28;20029;-75
2023/07/30 09:05:50;;;;;;;3.78;2.25;;;;;;;33.23;100.00;100290.50;5051608;28;20020;-75
2023/07/30 09:08:17;;;;;;;3.45;2.17;;;;;;;33.54;100.00;100296.44;5051620;28;20143;-74
2023/07/30 09:10:43;;;;;;;7.97;2.40;;;;;;;34.22;100.00;100337.50;5034318;28;20069;-73
2023/07/30 09:13:08;;;;;;;4.38;2.47;;;;;;;34.16;100.00;100354.91;5051630;28;20040;-75
2023/07/30 09:15:39;;;;;;;3.85;2.28;;;;;;;34.84;100.00;100293.63;5051742;28;20033;-75
2023/07/30 09:18:05;;;;;;;;;;;;;;;33.77;100.00;100339.38;5034521;28;20032;-74
2023/07/30 09:20:38;;;;;;;3.58;2.40;;;;;;;33.46;100.00;100343.97;5051698;28;20395;-75
2023/07/30 09:23:05;;;;;;;4.85;2.40;;;;;;;33.31;100.00;100334.41;5033636;28;20036;-77
2023/07/30 09:25:30;;;;;;;3.45;2.40;;;;;;;34.59;100.00;100318.81;5051060;28;20071;-75
2023/07/30 09:27:56;;;;;;;4.53;2.50;;;;;;;32.78;100.00;100287.94;5051096;28;20056;-75
2023/07/30 09:30:27;;;;;;;5.32;2.40;;;;;;;33.01;100.00;100272.91;5034116;28;20100;-75
2023/07/30 09:32:54;;;;;;;2.45;2.25;;;;;;;32.84;100.00;100290.66;5051492;28;20120;-74
2023/07/30 09:35:20;;;;;;;3.47;2.10;;;;;;;33.70;100.00;100226.81;5051295;28;20115;-75
2023/07/30 09:37:46;;;;;;;3.40;2.17;;;;;;;34.53;100.00;100301.88;5051218;28;20133;-75
2023/07/30 09:40:14;;;;;;;6.30;2.38;;;;;;;33.26;100.00;100269.00;5032821;28;20029;-75
2023/07/30 09:42:44;;;;;;;2.92;2.20;;;;;;;34.49;100.00;100257.53;5051848;28;20033;-77
2023/07/30 09:45:24;;;;;;;4.43;2.30;;;;;;;34.94;100.00;100302.84;5033929;28;20442;-77
2023/07/30 09:47:51;;;;;;;5.57;2.25;;;;;;;34.55;100.00;100264.69;5034046;28;20037;-75
2023/07/30 09:50:17;;;;;;;4.93;2.38;;;;;;;34.76;100.00;100286.66;5033608;28;20143;-74
2023/07/30 09:52:43;;;;;;;3.83;2.00;;;;;;;34.23;100.00;100265.19;5050768;28;20124;-74
2023/07/30 09:55:09;;;;;;;2.85;2.00;;;;;;;34.88;100.00;100287.75;5051561;28;20041;-71
2023/07/30 09:57:36;;;;;;;2.88;2.10;;;;;;;35.22;100.00;100244.66;5055078;28;20097;-74
2023/07/30 10:00:03;;;;;;;3.20;2.13;;;;;;;34.97;100.00;100235.56;5037369;28;20067;-73
2023/07/30 10:02:33;;;;;;;2.75;2.40;;;;;;;34.62;100.00;100257.66;5055348;28;20028;-74
2023/07/30 10:05:00;;;;;;;4.45;2.10;;;;;;;34.77;100.00;100261.03;5037525;28;20037;-74
2023/07/30 10:07:28;;;;;;;4.10;2.60;;;;;;;34.60;100.00;100235.88;5055707;28;20080;-75
2023/07/30 10:09:58;;;;;;;4.82;2.50;;;;;;;34.90;100.00;100163.31;5055431;28;20427;-74
2023/07/30 10:12:28;;;;;;;3.33;2.60;;;;;;;35.03;100.00;100194.31;5055338;28;20029;-75
2023/07/30 10:14:54;;;;;;;4.43;2.30;;;;;;;35.46;100.00;100246.84;5054794;28;20552;-74
2023/07/30 10:17:19;;;;;;;3.33;2.35;;;;;;;33.95;100.00;100181.38;5054604;28;20037;-74
2023/07/30 10:19:49;;;;;;;4.07;2.60;;;;;;;34.60;100.00;100220.03;5055031;28;20058;-73
2023/07/30 10:22:18;;;;;;;3.08;2.78;;;;;;;34.76;100.00;100223.22;5037209;28;20408;-74
2023/07/30 10:25:00;;;;;;;2.55;2.35;;;;;;;35.58;100.00;100213.53;5055039;28;20031;-74
2023/07/30 10:27:27;;;;;;;4.60;2.40;;;;;;;35.95;100.00;100230.78;5055099;28;20033;-74
2023/07/30 10:30:22;;;;;;;2.55;2.30;;;;;;;34.81;100.00;100209.41;5055064;28;20061;-74
2023/07/30 10:32:59;;;;;;;4.05;2.40;;;;;;;35.73;100.00;100224.75;5033174;28;20090;-74
2023/07/30 10:35:46;;;;;;;3.92;2.53;;;;;;;35.39;100.00;100214.25;5054850;28;20029;-75
2023/07/30 10:38:30;;;;;;;4.03;2.40;;;;;;;35.58;100.00;100212.69;5055049;28;20117;-75
2023/07/30 10:41:01;;;;;;;3.28;2.40;;;;;;;35.08;100.00;100203.31;5054654;28;20518;-75
2023/07/30 10:43:33;;;;;;;7.57;2.35;;;;;;;35.06;100.00;100168.31;5055121;28;20036;-73
2023/07/30 10:45:58;;;;;;;3.33;2.50;;;;;;;35.58;100.00;100165.06;5037041;28;20025;-75
2023/07/30 10:48:40;;;;;;;2.95;2.60;;;;;;;35.79;100.00;100211.75;5054355;28;20037;-75
2023/07/30 10:51:08;;;;;;;3.05;2.50;;;;;;;35.83;100.00;100205.03;5054496;28;20045;-75
2023/07/30 10:53:36;;;;;;;4.20;2.53;;;;;;;35.74;100.00;100199.94;5054388;28;20094;-72
2023/07/30 10:56:03;;;;;;;2.88;2.42;;;;;;;34.82;100.00;100155.53;5054425;28;20032;-74
2023/07/30 10:58:34;;;;;;;4.47;2.40;;;;;;;34.88;100.00;100144.97;5053933;28;20055;-73
2023/07/30 11:01:02;;;;;;;2.47;2.28;;;;;;;35.15;100.00;100201.50;5053810;28;20040;-73
2023/07/30 11:03:28;;;;;;;5.22;2.80;;;;;;;35.37;100.00;100147.47;5054291;28;20509;-75
2023/07/30 11:05:54;;;;;;;3.42;2.60;;;;;;;35.09;100.00;100167.91;5053625;28;20025;-74
2023/07/30 11:08:38;;;;;;;3.65;2.70;;;;;;;34.72;100.00;100128.63;5054201;28;20033;-75
2023/07/30 11:11:05;;;;;;;5.30;2.88;;;;;;;34.70;100.00;100130.66;5054110;28;20110;-77
2023/07/30 11:13:42;;;;;;;2.75;2.47;;;;;;;34.68;100.00;100124.75;5036164;28;20025;-74